createdAt,value
2018-09-16T00:00:06.638Z,0.00
2018-09-16T00:01:06.563Z,0.00
2018-09-16T00:02:06.487Z,0.00
2018-09-16T00:03:06.409Z,0.00
2018-09-16T00:04:06.333Z,0.00
2018-09-16T00:05:06.253Z,0.00
2018-09-16T00:06:06.179Z,0.00
2018-09-16T00:07:06.099Z,0.00
2018-09-16T00:08:06.024Z,0.00
2018-09-16T00:09:05.951Z,0.00
2018-09-16T00:10:05.870Z,0.00
2018-09-16T00:11:05.788Z,0.00
2018-09-16T00:12:05.714Z,0.00
2018-09-16T00:13:05.634Z,0.00
2018-09-16T00:14:05.577Z,0.00
2018-09-16T00:15:05.479Z,0.00
2018-09-16T00:16:05.404Z,0.00
2018-09-16T00:17:05.326Z,0.00
2018-09-16T00:18:05.249Z,0.00
2018-09-16T00:19:05.171Z,0.00
2018-09-16T00:20:05.102Z,0.00
2018-09-16T00:21:05.017Z,0.00
2018-09-16T00:22:04.939Z,0.00
2018-09-16T00:23:04.861Z,0.00
2018-09-16T00:24:04.785Z,0.00
2018-09-16T00:25:04.714Z,0.00
2018-09-16T00:26:04.632Z,0.00
2018-09-16T00:27:04.553Z,0.00
2018-09-16T00:28:04.476Z,0.00
2018-09-16T00:29:04.399Z,0.00
2018-09-16T00:30:04.323Z,0.00
2018-09-16T00:31:04.249Z,0.00
2018-09-16T00:32:04.170Z,0.00
2018-09-16T00:33:04.090Z,0.00
2018-09-16T00:34:04.011Z,0.00
2018-09-16T00:35:03.932Z,0.00
2018-09-16T00:36:03.856Z,0.00
2018-09-16T00:37:03.781Z,0.00
2018-09-16T00:38:03.702Z,0.00
2018-09-16T00:39:03.623Z,0.00
2018-09-16T00:40:03.547Z,0.00
2018-09-16T00:41:03.469Z,0.00
2018-09-16T00:42:03.392Z,0.00
2018-09-16T00:43:03.314Z,0.00
2018-09-16T00:44:03.237Z,0.00
2018-09-16T00:45:03.160Z,0.00
2018-09-16T00:46:03.082Z,0.00
2018-09-16T00:47:03.003Z,0.00
2018-09-16T00:48:02.932Z,0.00
2018-09-16T00:49:02.861Z,0.00
2018-09-16T00:50:02.778Z,0.00
2018-09-16T00:51:02.694Z,0.00
2018-09-16T00:52:02.618Z,0.00
2018-09-16T00:53:02.542Z,0.00
2018-09-16T00:54:02.462Z,0.00
2018-09-16T00:55:02.384Z,0.00
2018-09-16T00:56:02.311Z,0.00
2018-09-16T00:57:02.232Z,0.00
2018-09-16T00:58:02.152Z,0.00
2018-09-16T00:59:02.073Z,0.00
2018-09-16T01:00:02.000Z,0.00
2018-09-16T01:01:01.920Z,0.00
2018-09-16T01:02:01.842Z,0.00
2018-09-16T01:03:01.767Z,0.00
2018-09-16T01:04:01.686Z,0.00
2018-09-16T01:05:01.613Z,0.00
2018-09-16T01:06:01.535Z,0.00
2018-09-16T01:07:01.457Z,0.00
2018-09-16T01:08:01.378Z,0.00
2018-09-16T01:09:01.299Z,0.00
2018-09-16T01:10:01.223Z,0.00
2018-09-16T01:11:01.146Z,0.00
2018-09-16T01:12:01.065Z,0.00
2018-09-16T01:13:00.993Z,0.00
2018-09-16T01:14:00.912Z,0.00
2018-09-16T01:15:00.834Z,0.00
2018-09-16T01:16:00.759Z,0.00
2018-09-16T01:17:00.676Z,0.00
2018-09-16T01:18:00.602Z,0.00
2018-09-16T01:19:00.521Z,0.00
2018-09-16T01:20:00.445Z,0.00
2018-09-16T01:21:00.371Z,0.00
2018-09-16T01:22:00.290Z,0.00
2018-09-16T01:23:00.211Z,0.00
2018-09-16T01:24:00.133Z,0.00
2018-09-16T01:25:00.056Z,0.00
2018-09-16T01:25:59.980Z,0.00
2018-09-16T01:26:59.902Z,0.00
2018-09-16T01:27:59.821Z,0.00
2018-09-16T01:28:59.744Z,0.00
2018-09-16T01:29:59.667Z,0.00
2018-09-16T01:30:59.589Z,0.00
2018-09-16T01:31:59.552Z,0.00
2018-09-16T01:32:59.433Z,0.00
2018-09-16T01:33:59.357Z,0.00
2018-09-16T01:34:59.280Z,0.00
2018-09-16T01:35:59.207Z,0.00
2018-09-16T01:36:59.126Z,0.00
2018-09-16T01:37:59.046Z,0.00
2018-09-16T01:38:58.969Z,0.00
2018-09-16T01:39:58.891Z,0.00
2018-09-16T01:40:58.812Z,0.00
2018-09-16T01:41:58.738Z,0.00
2018-09-16T01:42:58.656Z,0.00
2018-09-16T01:43:58.580Z,0.00
2018-09-16T01:44:58.516Z,0.00
2018-09-16T01:45:58.427Z,0.00
2018-09-16T01:46:58.348Z,0.00
2018-09-16T01:47:58.269Z,0.00
2018-09-16T01:48:58.191Z,0.00
2018-09-16T01:49:58.109Z,0.00
2018-09-16T01:50:58.035Z,0.00
2018-09-16T01:51:57.957Z,0.00
2018-09-16T01:52:57.881Z,0.00
2018-09-16T01:53:57.802Z,0.00
2018-09-16T01:54:57.723Z,0.00
2018-09-16T01:55:57.643Z,0.00
2018-09-16T01:56:57.565Z,0.00
2018-09-16T01:57:57.488Z,0.00
2018-09-16T01:58:57.421Z,0.00
2018-09-16T01:59:57.331Z,0.00
2018-09-16T02:00:57.253Z,0.00
2018-09-16T02:01:57.176Z,0.00
2018-09-16T02:02:57.105Z,0.00
2018-09-16T02:03:57.019Z,0.00
2018-09-16T02:04:56.943Z,0.00
2018-09-16T02:05:56.864Z,0.00
2018-09-16T02:06:56.789Z,0.00
2018-09-16T02:07:56.709Z,0.00
2018-09-16T02:08:56.635Z,0.00
2018-09-16T02:09:56.550Z,0.00
2018-09-16T02:10:56.475Z,0.00
2018-09-16T02:11:56.396Z,0.00
2018-09-16T02:12:56.318Z,0.00
2018-09-16T02:13:56.239Z,0.00
2018-09-16T02:14:56.160Z,0.00
2018-09-16T02:15:56.083Z,0.00
2018-09-16T02:16:56.006Z,0.00
2018-09-16T02:17:55.927Z,0.00
2018-09-16T02:18:55.847Z,0.00
2018-09-16T02:19:55.773Z,0.00
2018-09-16T02:20:55.694Z,0.00
2018-09-16T02:21:55.615Z,0.00
2018-09-16T02:22:55.536Z,0.00
2018-09-16T02:23:55.469Z,0.00
2018-09-16T02:24:55.384Z,0.00
2018-09-16T02:25:55.306Z,0.00
2018-09-16T02:26:55.223Z,0.00
2018-09-16T02:27:55.147Z,0.00
2018-09-16T02:28:55.070Z,0.00
2018-09-16T02:29:54.990Z,0.00
2018-09-16T02:30:54.909Z,0.00
2018-09-16T02:31:54.835Z,0.00
2018-09-16T02:32:54.755Z,0.00
2018-09-16T02:33:54.676Z,0.00
2018-09-16T02:34:54.600Z,0.00
2018-09-16T02:35:54.520Z,0.00
2018-09-16T02:36:54.443Z,0.00
2018-09-16T02:37:54.364Z,0.00
2018-09-16T02:38:54.291Z,0.00
2018-09-16T02:39:54.206Z,0.00
2018-09-16T02:40:54.129Z,0.00
2018-09-16T02:41:54.051Z,0.00
2018-09-16T02:42:53.972Z,0.00
2018-09-16T02:43:53.893Z,0.00
2018-09-16T02:44:53.818Z,0.00
2018-09-16T02:45:53.737Z,0.00
2018-09-16T02:46:53.659Z,0.00
2018-09-16T02:47:53.580Z,0.00
2018-09-16T02:48:53.502Z,0.00
2018-09-16T02:49:53.430Z,0.00
2018-09-16T02:50:53.345Z,0.00
2018-09-16T02:51:53.266Z,0.00
2018-09-16T02:52:53.189Z,0.00
2018-09-16T02:53:53.112Z,0.00
2018-09-16T02:54:53.033Z,0.00
2018-09-16T02:55:52.958Z,0.00
2018-09-16T02:56:52.875Z,0.00
2018-09-16T02:57:52.799Z,0.00
2018-09-16T02:58:52.726Z,0.00
2018-09-16T02:59:52.640Z,0.00
2018-09-16T03:00:52.564Z,0.00
2018-09-16T03:01:52.484Z,0.00
2018-09-16T03:02:52.407Z,0.00
2018-09-16T03:03:52.327Z,0.00
2018-09-16T03:04:52.252Z,0.00
2018-09-16T03:05:52.171Z,0.00
2018-09-16T03:06:52.092Z,0.00
2018-09-16T03:07:52.013Z,0.00
2018-09-16T03:08:51.937Z,0.00
2018-09-16T03:09:51.857Z,0.00
2018-09-16T03:10:51.779Z,0.00
2018-09-16T03:11:51.847Z,0.00
2018-09-16T03:12:51.621Z,0.00
2018-09-16T03:13:51.548Z,0.00
2018-09-16T03:14:51.468Z,0.00
2018-09-16T03:15:51.388Z,0.00
2018-09-16T03:16:51.313Z,0.00
2018-09-16T03:17:51.229Z,0.00
2018-09-16T03:18:51.195Z,0.00
2018-09-16T03:19:51.078Z,0.00
2018-09-16T03:20:50.994Z,0.00
2018-09-16T03:21:50.917Z,0.00
2018-09-16T03:22:50.846Z,0.00
2018-09-16T03:23:50.756Z,0.00
2018-09-16T03:24:50.685Z,0.00
2018-09-16T03:25:50.602Z,0.00
2018-09-16T03:26:50.526Z,0.00
2018-09-16T03:27:50.445Z,0.00
2018-09-16T03:28:50.373Z,0.00
2018-09-16T03:29:50.289Z,0.00
2018-09-16T03:30:50.209Z,0.00
2018-09-16T03:31:50.130Z,0.00
2018-09-16T03:32:50.054Z,0.00
2018-09-16T03:33:49.974Z,0.00
2018-09-16T03:34:49.894Z,0.00
2018-09-16T03:35:49.828Z,0.00
2018-09-16T03:36:49.739Z,0.00
2018-09-16T03:37:49.662Z,0.00
2018-09-16T03:38:49.581Z,0.00
2018-09-16T03:39:49.503Z,0.00
2018-09-16T03:40:49.422Z,0.00
2018-09-16T03:41:49.345Z,0.00
2018-09-16T03:42:49.268Z,0.00
2018-09-16T03:43:49.190Z,0.00
2018-09-16T03:44:49.109Z,0.00
2018-09-16T03:45:49.031Z,0.00
2018-09-16T03:46:49.013Z,0.00
2018-09-16T03:47:48.873Z,0.00
2018-09-16T03:48:48.795Z,0.00
2018-09-16T03:49:48.715Z,0.00
2018-09-16T03:50:48.723Z,0.00
2018-09-16T03:51:48.558Z,0.00
2018-09-16T03:52:48.494Z,0.00
2018-09-16T03:53:48.401Z,0.00
2018-09-16T03:54:48.324Z,0.00
2018-09-16T03:55:48.244Z,0.00
2018-09-16T03:56:48.167Z,0.00
2018-09-16T03:57:48.100Z,0.00
2018-09-16T03:58:48.009Z,0.00
2018-09-16T03:59:47.929Z,0.00
2018-09-16T04:00:47.852Z,0.00
2018-09-16T04:01:47.773Z,0.00
2018-09-16T04:02:47.695Z,0.00
2018-09-16T04:03:47.616Z,0.00
2018-09-16T04:04:47.538Z,0.00
2018-09-16T04:05:47.471Z,0.00
2018-09-16T04:06:47.385Z,0.00
2018-09-16T04:07:47.301Z,0.00
2018-09-16T04:08:47.223Z,0.00
2018-09-16T04:09:47.144Z,0.00
2018-09-16T04:10:47.065Z,0.00
2018-09-16T04:11:46.990Z,0.00
2018-09-16T04:12:46.909Z,0.00
2018-09-16T04:13:46.849Z,0.00
2018-09-16T04:14:46.751Z,0.00
2018-09-16T04:15:46.676Z,0.00
2018-09-16T04:16:46.598Z,0.00
2018-09-16T04:17:46.518Z,0.00
2018-09-16T04:18:46.436Z,0.00
2018-09-16T04:19:46.358Z,0.00
2018-09-16T04:20:46.279Z,0.00
2018-09-16T04:21:46.201Z,0.00
2018-09-16T04:22:46.122Z,0.00
2018-09-16T04:23:46.044Z,0.00
2018-09-16T04:24:45.965Z,4.00
2018-09-16T04:25:45.887Z,4.00
2018-09-16T04:26:45.807Z,4.00
2018-09-16T04:27:45.729Z,0.00
2018-09-16T04:28:45.650Z,4.00
2018-09-16T04:29:45.577Z,4.00
2018-09-16T04:30:45.492Z,4.00
2018-09-16T04:31:45.414Z,8.00
2018-09-16T04:32:45.335Z,8.00
2018-09-16T04:33:45.258Z,12.00
2018-09-16T04:34:45.177Z,12.00
2018-09-16T04:35:45.099Z,12.00
2018-09-16T04:36:45.021Z,16.00
2018-09-16T04:37:44.946Z,16.00
2018-09-16T04:38:44.865Z,20.00
2018-09-16T04:39:44.786Z,24.00
2018-09-16T04:40:44.705Z,28.00
2018-09-16T04:41:44.677Z,32.00
2018-09-16T04:42:44.549Z,36.00
2018-09-16T04:43:44.470Z,44.00
2018-09-16T04:44:44.432Z,52.00
2018-09-16T04:45:44.314Z,60.00
2018-09-16T04:46:44.232Z,72.00
2018-09-16T04:47:44.153Z,76.00
2018-09-16T04:48:44.079Z,88.00
2018-09-16T04:49:44.042Z,100.00
2018-09-16T04:50:43.927Z,112.00
2018-09-16T04:51:43.839Z,124.00
2018-09-16T04:52:43.763Z,140.00
2018-09-16T04:53:43.686Z,156.00
2018-09-16T04:54:43.608Z,172.00
2018-09-16T04:55:43.525Z,192.00
2018-09-16T04:56:43.446Z,212.00
2018-09-16T04:57:43.366Z,232.00
2018-09-16T04:58:43.299Z,256.00
2018-09-16T04:59:43.221Z,272.00
2018-09-16T05:00:43.131Z,296.00
2018-09-16T05:01:43.051Z,312.00
2018-09-16T05:02:42.974Z,328.00
2018-09-16T05:03:42.893Z,348.00
2018-09-16T05:04:42.817Z,364.00
2018-09-16T05:05:42.739Z,384.00
2018-09-16T05:06:42.664Z,400.00
2018-09-16T05:07:42.579Z,416.00
2018-09-16T05:08:42.500Z,432.00
2018-09-16T05:09:42.423Z,444.00
2018-09-16T05:10:42.344Z,460.00
2018-09-16T05:11:42.266Z,476.00
2018-09-16T05:12:42.186Z,496.00
2018-09-16T05:13:42.108Z,512.00
2018-09-16T05:14:42.029Z,532.00
2018-09-16T05:15:41.949Z,548.00
2018-09-16T05:16:41.871Z,568.00
2018-09-16T05:17:41.793Z,592.00
2018-09-16T05:18:41.713Z,616.00
2018-09-16T05:19:41.638Z,640.00
2018-09-16T05:20:41.556Z,664.00
2018-09-16T05:21:41.481Z,688.00
2018-09-16T05:22:41.542Z,708.00
2018-09-16T05:23:41.321Z,724.00
2018-09-16T05:24:41.245Z,740.00
2018-09-16T05:25:41.164Z,756.00
2018-09-16T05:26:41.086Z,776.00
2018-09-16T05:27:41.008Z,792.00
2018-09-16T05:28:40.927Z,816.00
2018-09-16T05:29:40.848Z,844.00
2018-09-16T05:30:40.766Z,868.00
2018-09-16T05:31:40.695Z,884.00
2018-09-16T05:32:40.613Z,908.00
2018-09-16T05:33:40.532Z,932.00
2018-09-16T05:34:40.453Z,952.00
2018-09-16T05:35:40.375Z,972.00
2018-09-16T05:36:40.295Z,996.00
2018-09-16T05:37:40.222Z,1016.00
2018-09-16T05:38:40.137Z,1028.00
2018-09-16T05:39:40.060Z,1048.00
2018-09-16T05:40:39.982Z,1064.00
2018-09-16T05:41:39.902Z,1080.00
2018-09-16T05:42:39.825Z,1096.00
2018-09-16T05:43:39.747Z,1112.00
2018-09-16T05:44:39.667Z,1132.00
2018-09-16T05:45:39.588Z,1148.00
2018-09-16T05:46:39.508Z,1164.00
2018-09-16T05:47:39.429Z,1180.00
2018-09-16T05:48:39.352Z,1192.00
2018-09-16T05:49:39.271Z,1212.00
2018-09-16T05:50:39.198Z,1228.00
2018-09-16T05:51:39.114Z,1240.00
2018-09-16T05:52:39.081Z,1260.00
2018-09-16T05:53:39.045Z,1268.00
2018-09-16T05:54:38.879Z,1284.00
2018-09-16T05:55:38.803Z,1288.00
2018-09-16T05:56:38.726Z,1304.00
2018-09-16T05:57:38.645Z,1336.00
2018-09-16T05:58:38.567Z,1352.00
2018-09-16T05:59:38.486Z,1368.00
2018-09-16T06:00:38.411Z,1368.00
2018-09-16T06:01:38.329Z,1388.00
2018-09-16T06:02:38.263Z,1372.00
2018-09-16T06:03:38.172Z,1368.00
2018-09-16T06:04:38.145Z,1400.00
2018-09-16T06:05:38.018Z,1412.00
2018-09-16T06:06:37.935Z,1460.00
2018-09-16T06:07:37.856Z,1492.00
2018-09-16T06:08:37.784Z,1508.00
2018-09-16T06:09:37.699Z,1520.00
2018-09-16T06:10:37.633Z,1536.00
2018-09-16T06:11:37.544Z,1540.00
2018-09-16T06:12:37.461Z,1556.00
2018-09-16T06:13:37.383Z,1560.00
2018-09-16T06:14:37.307Z,1548.00
2018-09-16T06:15:37.228Z,1540.00
2018-09-16T06:16:37.148Z,1556.00
2018-09-16T06:17:37.079Z,1612.00
2018-09-16T06:18:36.992Z,1628.00
2018-09-16T06:19:36.918Z,1632.00
2018-09-16T06:20:36.845Z,1636.00
2018-09-16T06:21:36.760Z,1648.00
2018-09-16T06:22:36.748Z,1656.00
2018-09-16T06:23:36.601Z,1664.00
2018-09-16T06:24:36.526Z,1640.00
2018-09-16T06:25:36.446Z,1636.00
2018-09-16T06:26:36.378Z,1636.00
2018-09-16T06:27:36.287Z,1664.00
2018-09-16T06:28:36.209Z,1708.00
2018-09-16T06:29:36.136Z,1740.00
2018-09-16T06:30:36.057Z,1776.00
2018-09-16T06:31:35.980Z,1776.00
2018-09-16T06:32:35.900Z,1812.00
2018-09-16T06:33:35.837Z,1828.00
2018-09-16T06:34:35.738Z,1844.00
2018-09-16T06:35:35.662Z,1852.00
2018-09-16T06:36:35.583Z,1864.00
2018-09-16T06:37:35.508Z,1872.00
2018-09-16T06:38:35.425Z,1880.00
2018-09-16T06:39:35.349Z,1860.00
2018-09-16T06:40:35.268Z,1900.00
2018-09-16T06:41:35.194Z,1908.00
2018-09-16T06:42:35.111Z,1904.00
2018-09-16T06:43:35.036Z,1912.00
2018-09-16T06:44:34.955Z,1932.00
2018-09-16T06:45:34.879Z,1948.00
2018-09-16T06:46:34.799Z,1960.00
2018-09-16T06:47:34.734Z,1964.00
2018-09-16T06:48:34.644Z,1968.00
2018-09-16T06:49:34.569Z,1980.00
2018-09-16T06:50:34.488Z,1984.00
2018-09-16T06:51:34.408Z,1996.00
2018-09-16T06:52:34.336Z,1980.00
2018-09-16T06:53:34.259Z,2004.00
2018-09-16T06:54:34.176Z,2008.00
2018-09-16T06:55:34.099Z,2016.00
2018-09-16T06:56:34.019Z,2024.00
2018-09-16T06:57:33.944Z,2032.00
2018-09-16T06:58:33.870Z,2036.00
2018-09-16T06:59:33.788Z,2044.00
2018-09-16T07:00:33.709Z,2052.00
2018-09-16T07:01:33.647Z,2060.00
2018-09-16T07:02:33.557Z,2064.00
2018-09-16T07:03:33.476Z,2072.00
2018-09-16T07:04:33.399Z,2076.00
2018-09-16T07:05:33.321Z,2084.00
2018-09-16T07:06:33.247Z,2088.00
2018-09-16T07:07:33.165Z,2096.00
2018-09-16T07:08:33.087Z,2104.00
2018-09-16T07:09:33.009Z,2108.00
2018-09-16T07:10:32.938Z,2116.00
2018-09-16T07:11:32.863Z,2120.00
2018-09-16T07:12:32.786Z,2128.00
2018-09-16T07:13:32.700Z,2132.00
2018-09-16T07:14:32.746Z,2136.00
2018-09-16T07:15:32.543Z,2144.00
2018-09-16T07:16:32.469Z,2148.00
2018-09-16T07:17:32.389Z,2156.00
2018-09-16T07:18:32.311Z,2164.00
2018-09-16T07:19:32.238Z,2172.00
2018-09-16T07:20:32.161Z,2176.00
2018-09-16T07:21:32.079Z,2180.00
2018-09-16T07:22:32.002Z,2184.00
2018-09-16T07:23:31.924Z,2184.00
2018-09-16T07:24:31.847Z,2184.00
2018-09-16T07:25:31.771Z,2184.00
2018-09-16T07:26:31.692Z,2188.00
2018-09-16T07:27:31.778Z,2172.00
2018-09-16T07:28:31.537Z,2172.00
2018-09-16T07:29:31.460Z,2204.00
2018-09-16T07:30:31.383Z,2216.00
2018-09-16T07:31:31.308Z,2228.00
2018-09-16T07:32:31.229Z,2228.00
2018-09-16T07:33:31.160Z,2236.00
2018-09-16T07:34:31.075Z,2244.00
2018-09-16T07:35:31.001Z,2248.00
2018-09-16T07:36:30.921Z,2252.00
2018-09-16T07:37:30.844Z,2248.00
2018-09-16T07:38:30.764Z,2264.00
2018-09-16T07:39:30.688Z,2264.00
2018-09-16T07:40:30.614Z,2272.00
2018-09-16T07:41:30.534Z,2280.00
2018-09-16T07:42:30.459Z,2284.00
2018-09-16T07:43:30.381Z,2280.00
2018-09-16T07:44:30.307Z,2272.00
2018-09-16T07:45:30.228Z,2264.00
2018-09-16T07:46:30.160Z,2236.00
2018-09-16T07:47:30.144Z,2272.00
2018-09-16T07:48:29.999Z,2320.00
2018-09-16T07:49:29.919Z,2312.00
2018-09-16T07:50:29.842Z,2312.00
2018-09-16T07:51:29.786Z,2312.00
2018-09-16T07:52:29.691Z,2324.00
2018-09-16T07:53:29.614Z,2332.00
2018-09-16T07:54:29.535Z,2336.00
2018-09-16T07:55:29.460Z,2344.00
2018-09-16T07:56:29.382Z,2348.00
2018-09-16T07:57:29.315Z,2348.00
2018-09-16T07:58:29.232Z,2352.00
2018-09-16T07:59:29.156Z,2352.00
2018-09-16T08:00:29.128Z,2360.00
2018-09-16T08:01:29.004Z,2356.00
2018-09-16T08:02:28.920Z,2364.00
2018-09-16T08:03:28.844Z,2356.00
2018-09-16T08:04:28.771Z,2356.00
2018-09-16T08:05:28.699Z,2352.00
2018-09-16T08:06:28.617Z,2332.00
2018-09-16T08:07:28.546Z,2352.00
2018-09-16T08:08:28.469Z,2356.00
2018-09-16T08:09:28.387Z,2352.00
2018-09-16T08:10:28.309Z,2360.00
2018-09-16T08:11:28.232Z,2388.00
2018-09-16T08:12:28.159Z,2408.00
2018-09-16T08:13:28.078Z,2412.00
2018-09-16T08:14:28.003Z,2424.00
2018-09-16T08:15:27.924Z,2424.00
2018-09-16T08:16:27.850Z,2436.00
2018-09-16T08:17:27.787Z,2436.00
2018-09-16T08:18:27.775Z,2444.00
2018-09-16T08:19:27.621Z,2448.00
2018-09-16T08:20:27.545Z,2444.00
2018-09-16T08:21:27.547Z,2452.00
2018-09-16T08:22:27.392Z,2456.00
2018-09-16T08:23:27.315Z,2464.00
2018-09-16T08:24:27.244Z,2480.00
2018-09-16T08:25:27.162Z,2492.00
2018-09-16T08:26:27.084Z,2508.00
2018-09-16T08:27:27.011Z,2516.00
2018-09-16T08:28:27.018Z,2528.00
2018-09-16T08:29:26.857Z,2536.00
2018-09-16T08:30:26.779Z,2536.00
2018-09-16T08:31:26.706Z,2544.00
2018-09-16T08:32:26.629Z,2552.00
2018-09-16T08:33:26.557Z,2556.00
2018-09-16T08:34:26.476Z,2560.00
2018-09-16T08:35:26.400Z,2564.00
2018-09-16T08:36:26.330Z,2576.00
2018-09-16T08:37:26.252Z,2580.00
2018-09-16T08:38:26.175Z,2592.00
2018-09-16T08:39:26.095Z,2596.00
2018-09-16T08:40:26.024Z,2604.00
2018-09-16T08:41:25.945Z,2612.00
2018-09-16T08:42:25.869Z,2620.00
2018-09-16T08:43:25.791Z,2628.00
2018-09-16T08:44:25.718Z,2636.00
2018-09-16T08:45:25.655Z,2640.00
2018-09-16T08:46:25.564Z,2652.00
2018-09-16T08:47:25.489Z,2656.00
2018-09-16T08:48:25.413Z,2668.00
2018-09-16T08:49:25.340Z,2672.00
2018-09-16T08:50:25.261Z,2676.00
2018-09-16T08:51:25.186Z,2688.00
2018-09-16T08:52:25.110Z,2688.00
2018-09-16T08:53:25.037Z,2676.00
2018-09-16T08:54:24.961Z,2676.00
2018-09-16T08:55:24.883Z,2676.00
2018-09-16T08:56:24.810Z,2652.00
2018-09-16T08:57:24.735Z,2700.00
2018-09-16T08:58:24.841Z,2700.00
2018-09-16T08:59:24.581Z,2708.00
2018-09-16T09:00:24.505Z,2716.00
2018-09-16T09:01:24.430Z,2728.00
2018-09-16T09:02:24.354Z,2736.00
2018-09-16T09:03:24.318Z,2740.00
2018-09-16T09:04:24.255Z,2748.00
2018-09-16T09:05:24.129Z,2756.00
2018-09-16T09:06:24.057Z,2756.00
2018-09-16T09:07:23.977Z,2768.00
2018-09-16T09:08:23.904Z,2792.00
2018-09-16T09:09:23.829Z,2800.00
2018-09-16T09:10:23.763Z,2804.00
2018-09-16T09:11:23.683Z,2816.00
2018-09-16T09:12:23.603Z,2824.00
2018-09-16T09:13:23.528Z,2828.00
2018-09-16T09:14:23.529Z,2836.00
2018-09-16T09:15:23.391Z,2844.00
2018-09-16T09:16:23.306Z,2852.00
2018-09-16T09:17:23.228Z,2864.00
2018-09-16T09:18:23.152Z,2864.00
2018-09-16T09:19:23.082Z,2868.00
2018-09-16T09:20:23.004Z,2872.00
2018-09-16T09:21:22.931Z,2880.00
2018-09-16T09:22:22.853Z,2884.00
2018-09-16T09:23:22.833Z,2892.00
2018-09-16T09:24:22.702Z,2904.00
2018-09-16T09:25:22.634Z,2912.00
2018-09-16T09:26:22.557Z,2928.00
2018-09-16T09:27:22.482Z,2936.00
2018-09-16T09:28:22.402Z,2948.00
2018-09-16T09:29:22.330Z,2964.00
2018-09-16T09:30:22.262Z,2972.00
2018-09-16T09:31:22.196Z,2984.00
2018-09-16T09:32:22.103Z,2996.00
2018-09-16T09:33:22.029Z,2996.00
2018-09-16T09:34:21.955Z,3000.00
2018-09-16T09:35:21.877Z,3012.00
2018-09-16T09:36:21.807Z,3028.00
2018-09-16T09:37:21.735Z,3040.00
2018-09-16T09:38:21.668Z,3048.00
2018-09-16T09:39:21.584Z,3064.00
2018-09-16T09:40:21.507Z,3080.00
2018-09-16T09:41:21.435Z,3104.00
2018-09-16T09:42:21.356Z,3128.00
2018-09-16T09:43:21.283Z,3152.00
2018-09-16T09:44:21.209Z,3168.00
2018-09-16T09:45:21.145Z,3188.00
2018-09-16T09:46:21.062Z,3208.00
2018-09-16T09:47:20.986Z,3228.00
2018-09-16T09:48:20.911Z,3244.00
2018-09-16T09:49:20.837Z,3268.00
2018-09-16T09:50:20.762Z,3288.00
2018-09-16T09:51:20.687Z,3312.00
2018-09-16T09:52:20.614Z,3328.00
2018-09-16T09:53:20.613Z,3348.00
2018-09-16T09:54:20.464Z,3376.00
2018-09-16T09:55:20.392Z,3404.00
2018-09-16T09:56:20.319Z,3436.00
2018-09-16T09:57:20.253Z,3464.00
2018-09-16T09:58:20.170Z,3496.00
2018-09-16T09:59:20.164Z,3528.00
2018-09-16T10:00:20.026Z,3552.00
2018-09-16T10:01:19.948Z,3576.00
2018-09-16T10:02:19.884Z,3592.00
2018-09-16T10:03:19.801Z,3612.00
2018-09-16T10:04:19.730Z,3628.00
2018-09-16T10:05:19.652Z,3652.00
2018-09-16T10:06:27.259Z,3676.00
2018-09-16T10:08:23.947Z,3748.00
2018-09-16T10:09:23.817Z,3784.00
2018-09-16T10:11:28.151Z,3840.00
2018-09-16T10:12:28.071Z,3876.00
2018-09-16T10:14:32.552Z,3940.00
2018-09-16T10:15:32.316Z,3980.00
2018-09-16T10:17:25.617Z,4052.00
2018-09-16T10:18:25.494Z,4084.00
2018-09-16T10:20:38.459Z,4156.00
2018-09-16T10:21:29.742Z,4184.00
2018-09-16T10:23:34.088Z,4264.00
2018-09-16T10:24:33.966Z,4304.00
2018-09-16T10:26:38.297Z,4380.00
2018-09-16T10:27:38.213Z,4428.00
2018-09-16T10:29:42.601Z,4520.00
2018-09-16T10:30:42.480Z,4564.00
2018-09-16T10:32:46.850Z,4648.00
2018-09-16T10:33:46.726Z,4672.00
2018-09-16T10:35:51.057Z,4784.00
2018-09-16T10:36:50.979Z,4856.00
2018-09-16T10:38:55.393Z,4960.00
2018-09-16T10:39:55.224Z,4992.00
2018-09-16T10:40:55.149Z,5008.00
2018-09-16T10:41:55.080Z,5048.00
2018-09-16T10:42:55.004Z,5080.00
2018-09-16T10:43:54.940Z,5100.00
2018-09-16T10:44:54.859Z,5100.00
2018-09-16T10:45:54.788Z,5132.00
2018-09-16T10:46:54.717Z,5176.00
2018-09-16T10:47:54.643Z,5192.00
2018-09-16T10:48:54.572Z,5236.00
2018-09-16T10:49:54.504Z,5284.00
2018-09-16T10:50:54.426Z,5316.00
2018-09-16T10:51:54.353Z,5340.00
2018-09-16T10:52:54.284Z,5348.00
2018-09-16T10:53:54.209Z,5348.00
2018-09-16T10:54:54.144Z,5328.00
2018-09-16T10:55:54.065Z,5356.00
2018-09-16T10:56:53.998Z,5408.00
2018-09-16T10:57:53.966Z,5480.00
2018-09-16T10:58:53.848Z,5524.00
2018-09-16T10:59:53.774Z,5548.00
2018-09-16T11:00:53.711Z,5616.00
2018-09-16T11:01:53.633Z,5688.00
2018-09-16T11:02:53.562Z,5748.00
2018-09-16T11:03:53.495Z,5808.00
2018-09-16T11:04:53.423Z,5864.00
2018-09-16T11:05:53.348Z,5904.00
2018-09-16T11:06:53.274Z,5964.00
2018-09-16T11:07:53.248Z,6028.00
2018-09-16T11:08:53.138Z,6112.00
2018-09-16T11:09:53.060Z,6172.00
2018-09-16T11:10:52.991Z,6248.00
2018-09-16T11:11:52.918Z,6300.00
2018-09-16T11:12:52.850Z,6380.00
2018-09-16T11:13:52.779Z,6476.00
2018-09-16T11:14:52.704Z,6548.00
2018-09-16T11:15:52.691Z,6624.00
2018-09-16T11:16:52.569Z,6692.00
2018-09-16T11:17:52.493Z,6752.00
2018-09-16T11:18:52.423Z,6788.00
2018-09-16T11:19:52.351Z,6808.00
2018-09-16T11:20:52.280Z,6896.00
2018-09-16T11:21:52.211Z,7096.00
2018-09-16T11:22:52.141Z,7500.00
2018-09-16T11:23:52.070Z,8620.00
2018-09-16T11:24:51.999Z,26528.00
2018-09-16T11:25:51.931Z,64448.00
2018-09-16T11:26:51.860Z,91904.00
2018-09-16T11:27:51.794Z,93216.00
2018-09-16T11:28:51.722Z,93664.00
2018-09-16T11:29:51.679Z,93504.00
2018-09-16T11:30:51.590Z,95904.00
2018-09-16T11:31:51.520Z,94816.00
2018-09-16T11:32:51.455Z,95168.00
2018-09-16T11:33:51.386Z,96224.00
2018-09-16T11:34:51.321Z,98112.00
2018-09-16T11:35:51.255Z,100768.00
2018-09-16T11:36:51.189Z,105088.00
2018-09-16T11:37:51.127Z,102688.00
2018-09-16T11:38:51.070Z,103584.00
2018-09-16T11:39:51.003Z,101376.00
2018-09-16T11:40:50.935Z,101824.00
2018-09-16T11:41:50.875Z,101952.00
2018-09-16T11:42:50.818Z,102816.00
2018-09-16T11:43:50.751Z,104128.00
2018-09-16T11:44:50.693Z,103616.00
2018-09-16T11:45:50.634Z,101088.00
2018-09-16T11:46:50.567Z,99744.00
2018-09-16T11:47:50.508Z,99872.00
2018-09-16T11:48:50.449Z,96768.00
2018-09-16T11:49:50.388Z,96864.00
2018-09-16T11:50:50.329Z,92288.00
2018-09-16T11:51:50.270Z,92224.00
2018-09-16T11:52:50.211Z,96384.00
2018-09-16T11:53:50.152Z,101792.00
2018-09-16T11:54:50.096Z,100672.00
2018-09-16T11:55:50.036Z,100768.00
2018-09-16T11:56:49.979Z,98432.00
2018-09-16T11:57:49.923Z,98912.00
2018-09-16T11:58:49.864Z,96736.00
2018-09-16T11:59:49.809Z,94944.00
2018-09-16T12:00:49.751Z,94112.00
2018-09-16T12:01:49.732Z,99520.00
2018-09-16T12:02:49.637Z,98176.00
2018-09-16T12:03:49.579Z,94624.00
2018-09-16T12:04:49.523Z,94784.00
2018-09-16T12:05:49.469Z,91328.00
2018-09-16T12:06:49.416Z,90016.00
2018-09-16T12:07:49.356Z,79200.00
2018-09-16T12:08:49.298Z,80832.00
2018-09-16T12:09:49.252Z,81376.00
2018-09-16T12:10:49.189Z,83200.00
2018-09-16T12:11:49.133Z,83680.00
2018-09-16T12:12:49.079Z,80640.00
2018-09-16T12:13:49.022Z,81824.00
2018-09-16T12:14:48.969Z,85920.00
2018-09-16T12:15:48.912Z,89408.00
2018-09-16T12:16:48.861Z,89472.00
2018-09-16T12:17:48.805Z,91520.00
2018-09-16T12:18:48.751Z,89184.00
2018-09-16T12:19:48.694Z,95040.00
2018-09-16T12:20:48.641Z,93440.00
2018-09-16T12:21:48.589Z,93408.00
2018-09-16T12:22:48.534Z,94048.00
2018-09-16T12:23:48.476Z,94944.00
2018-09-16T12:24:48.426Z,94464.00
2018-09-16T12:25:48.369Z,92128.00
2018-09-16T12:26:48.317Z,93280.00
2018-09-16T12:27:48.263Z,91936.00
2018-09-16T12:28:48.210Z,90112.00
2018-09-16T12:29:48.154Z,85632.00
2018-09-16T12:30:48.111Z,86112.00
2018-09-16T12:31:48.049Z,86944.00
2018-09-16T12:32:47.995Z,88000.00
2018-09-16T12:33:47.942Z,88160.00
2018-09-16T12:34:47.889Z,88608.00
2018-09-16T12:35:47.835Z,90496.00
2018-09-16T12:36:47.783Z,90816.00
2018-09-16T12:37:47.731Z,91648.00
2018-09-16T12:38:47.677Z,87776.00
2018-09-16T12:39:47.625Z,86400.00
2018-09-16T12:40:47.570Z,86752.00